createdAt,value
2018-10-11T00:00:03.160Z,15.20
2018-10-11T00:02:31.359Z,15.20
2018-10-11T00:04:59.569Z,15.20
2018-10-11T00:07:27.756Z,15.20
2018-10-11T00:09:55.957Z,15.10
2018-10-11T00:12:24.281Z,15.10
2018-10-11T00:14:52.651Z,15.00
2018-10-11T00:17:20.874Z,15.00
2018-10-11T00:19:49.108Z,15.00
2018-10-11T00:22:17.297Z,15.00
2018-10-11T00:24:45.530Z,14.90
2018-10-11T00:27:13.705Z,14.90
2018-10-11T00:29:41.934Z,14.90
2018-10-11T00:32:10.109Z,14.80
2018-10-11T00:34:38.325Z,14.80
2018-10-11T00:37:06.900Z,14.70
2018-10-11T00:39:35.110Z,14.70
2018-10-11T00:42:03.317Z,14.60
2018-10-11T00:44:31.530Z,14.60
2018-10-11T00:46:59.726Z,14.70
2018-10-11T00:49:27.963Z,14.70
2018-10-11T00:51:56.151Z,14.70
2018-10-11T00:54:24.361Z,14.70
2018-10-11T00:56:52.564Z,14.60
2018-10-11T00:59:21.005Z,14.60
2018-10-11T01:01:49.209Z,14.60
2018-10-11T01:04:17.446Z,14.60
2018-10-11T01:06:45.665Z,14.60
2018-10-11T01:09:13.910Z,14.50
2018-10-11T01:11:42.325Z,14.50
2018-10-11T01:14:11.118Z,14.50
2018-10-11T01:16:39.502Z,14.50
2018-10-11T01:19:07.968Z,14.50
2018-10-11T01:21:36.397Z,14.40
2018-10-11T01:24:04.622Z,14.40
2018-10-11T01:26:32.836Z,14.30
2018-10-11T01:29:01.019Z,14.30
2018-10-11T01:31:29.247Z,14.20
2018-10-11T01:33:57.430Z,14.20
2018-10-11T01:36:25.652Z,14.20
2018-10-11T01:38:54.349Z,14.20
2018-10-11T01:41:22.665Z,14.20
2018-10-11T01:43:51.045Z,14.20
2018-10-11T01:46:19.266Z,14.20
2018-10-11T01:48:47.488Z,14.20
2018-10-11T01:51:16.609Z,14.10
2018-10-11T01:53:44.829Z,14.10
2018-10-11T01:56:13.061Z,14.10
2018-10-11T01:58:41.258Z,14.10
2018-10-11T02:01:09.672Z,14.10
2018-10-11T02:03:37.865Z,14.10
2018-10-11T02:06:06.373Z,14.10
2018-10-11T02:08:34.583Z,14.10
2018-10-11T02:11:02.843Z,14.20
2018-10-11T02:13:31.033Z,14.20
2018-10-11T02:15:59.261Z,14.10
2018-10-11T02:18:27.481Z,14.20
2018-10-11T02:20:55.677Z,14.10
2018-10-11T02:23:23.890Z,14.10
2018-10-11T02:25:52.074Z,14.10
2018-10-11T02:28:20.499Z,14.10
2018-10-11T02:30:48.681Z,14.10
2018-10-11T02:33:16.925Z,14.10
2018-10-11T02:35:45.151Z,14.20
2018-10-11T02:38:13.341Z,14.20
2018-10-11T02:40:41.546Z,14.20
2018-10-11T02:43:09.746Z,14.30
2018-10-11T02:45:37.929Z,14.30
2018-10-11T02:48:06.576Z,14.30
2018-10-11T02:50:35.018Z,14.30
2018-10-11T02:53:03.215Z,14.30
2018-10-11T02:55:31.433Z,14.30
2018-10-11T02:58:11.024Z,14.30
2018-10-11T03:00:39.404Z,14.20
2018-10-11T03:03:10.234Z,14.20
2018-10-11T03:05:41.062Z,14.20
2018-10-11T03:08:11.505Z,14.20
2018-10-11T03:10:39.869Z,14.10
2018-10-11T03:13:09.833Z,14.10
2018-10-11T03:15:38.055Z,14.10
2018-10-11T03:18:06.279Z,14.10
2018-10-11T03:20:34.477Z,14.00
2018-10-11T03:23:02.701Z,14.00
2018-10-11T03:25:30.881Z,14.00
2018-10-11T03:27:59.076Z,14.00
2018-10-11T03:30:27.262Z,14.00
2018-10-11T03:32:55.553Z,14.00
2018-10-11T03:35:23.886Z,14.00
2018-10-11T03:37:52.105Z,13.90
2018-10-11T03:40:20.321Z,13.80
2018-10-11T03:42:48.539Z,13.80
2018-10-11T03:45:16.729Z,13.80
2018-10-11T03:47:44.939Z,13.80
2018-10-11T03:50:13.201Z,13.80
2018-10-11T03:52:41.381Z,13.80
2018-10-11T03:55:09.777Z,13.80
2018-10-11T03:57:37.975Z,13.80
2018-10-11T04:00:06.355Z,13.80
2018-10-11T04:02:34.601Z,13.80
2018-10-11T04:05:02.822Z,13.80
2018-10-11T04:07:31.096Z,13.80
2018-10-11T04:09:59.229Z,13.80
2018-10-11T04:12:27.429Z,13.80
2018-10-11T04:14:55.614Z,13.70
2018-10-11T04:17:23.914Z,13.70
2018-10-11T04:19:52.139Z,13.70
2018-10-11T04:22:20.353Z,13.70
2018-10-11T04:24:48.562Z,13.70
2018-10-11T04:27:16.765Z,13.60
2018-10-11T04:29:44.977Z,13.60
2018-10-11T04:32:13.170Z,13.60
2018-10-11T04:34:41.430Z,13.50
2018-10-11T04:37:09.959Z,13.40
2018-10-11T04:39:38.390Z,13.40
2018-10-11T04:42:07.217Z,13.40
2018-10-11T04:44:36.408Z,13.50
2018-10-11T04:47:04.956Z,13.50
2018-10-11T04:49:33.382Z,13.50
2018-10-11T04:52:01.562Z,13.60
2018-10-11T04:54:29.785Z,13.60
2018-10-11T04:56:57.969Z,13.60
2018-10-11T04:59:26.193Z,13.60
2018-10-11T05:01:54.463Z,13.60
2018-10-11T05:04:22.673Z,13.60
2018-10-11T05:06:50.873Z,13.60
2018-10-11T05:09:19.089Z,13.50
2018-10-11T05:11:47.306Z,13.50
2018-10-11T05:14:15.677Z,13.60
2018-10-11T05:16:44.105Z,13.60
2018-10-11T05:19:12.349Z,13.60
2018-10-11T05:21:40.865Z,13.60
2018-10-11T05:24:09.203Z,13.60
2018-10-11T05:26:37.419Z,13.60
2018-10-11T05:29:05.633Z,13.70
2018-10-11T05:31:33.857Z,13.70
2018-10-11T05:34:02.062Z,13.60
2018-10-11T05:36:30.262Z,13.60
2018-10-11T05:38:58.550Z,13.50
2018-10-11T05:41:26.798Z,13.50
2018-10-11T05:43:55.033Z,13.40
2018-10-11T05:46:30.496Z,13.60
2018-10-11T05:48:59.412Z,13.60
2018-10-11T05:51:28.377Z,13.60
2018-10-11T05:53:57.197Z,13.80
2018-10-11T05:56:27.513Z,13.90
2018-10-11T05:58:56.033Z,14.00
2018-10-11T06:01:24.883Z,14.00
2018-10-11T06:03:53.502Z,14.10
2018-10-11T06:06:21.757Z,14.20
2018-10-11T06:08:50.017Z,14.20
2018-10-11T06:11:18.253Z,14.30
2018-10-11T06:13:47.125Z,14.20
2018-10-11T06:16:15.486Z,14.10
2018-10-11T06:18:44.782Z,14.00
2018-10-11T06:21:13.231Z,14.00
2018-10-11T06:23:41.545Z,14.00
2018-10-11T06:26:09.782Z,13.90
2018-10-11T06:28:38.589Z,13.90
2018-10-11T06:31:07.108Z,14.00
2018-10-11T06:33:35.417Z,14.00
2018-10-11T06:36:04.086Z,14.10
2018-10-11T06:38:32.625Z,14.20
2018-10-11T06:41:00.869Z,14.20
2018-10-11T06:43:29.207Z,14.30
2018-10-11T06:45:57.564Z,14.40
2018-10-11T06:48:25.795Z,14.50
2018-10-11T06:50:54.322Z,14.50
2018-10-11T06:53:22.597Z,14.60
2018-10-11T06:55:50.863Z,14.70
2018-10-11T06:58:19.054Z,14.80
2018-10-11T07:00:47.273Z,15.10
2018-10-11T07:03:15.477Z,15.10
2018-10-11T07:05:43.706Z,15.30
2018-10-11T07:08:11.972Z,15.30
2018-10-11T07:10:40.209Z,15.30
2018-10-11T07:13:08.817Z,15.50
2018-10-11T07:15:37.255Z,15.50
2018-10-11T07:18:05.493Z,15.50
2018-10-11T07:20:33.953Z,15.50
2018-10-11T07:23:02.151Z,15.60
2018-10-11T07:25:30.365Z,15.70
2018-10-11T07:27:58.603Z,15.90
2018-10-11T07:30:27.550Z,16.00
2018-10-11T07:32:56.058Z,16.00
2018-10-11T07:35:24.599Z,16.10
2018-10-11T07:37:53.028Z,16.30
2018-10-11T07:40:21.307Z,16.40
2018-10-11T07:42:49.454Z,16.50
2018-10-11T07:45:18.067Z,16.70
2018-10-11T07:47:46.273Z,16.80
2018-10-11T07:50:14.521Z,16.90
2018-10-11T07:52:42.729Z,17.00
2018-10-11T07:55:10.973Z,17.00
2018-10-11T07:57:39.277Z,17.10
2018-10-11T08:00:10.815Z,17.10
2018-10-11T08:02:39.529Z,17.20
2018-10-11T08:05:07.780Z,17.30
2018-10-11T08:07:35.975Z,17.40
2018-10-11T08:10:04.194Z,17.60
2018-10-11T08:12:32.381Z,17.70
2018-10-11T08:15:00.595Z,17.90
2018-10-11T08:17:29.334Z,18.00
2018-10-11T08:19:57.535Z,18.10
2018-10-11T08:22:25.699Z,18.10
2018-10-11T08:24:54.150Z,18.20
2018-10-11T08:27:22.420Z,18.30
2018-10-11T08:29:50.615Z,18.50
2018-10-11T08:32:18.851Z,18.60
2018-10-11T08:34:47.025Z,18.70
2018-10-11T08:37:15.290Z,18.80
2018-10-11T08:39:43.546Z,18.90
2018-10-11T08:42:11.914Z,18.90
2018-10-11T08:44:40.131Z,19.00
2018-10-11T08:47:08.365Z,19.00
2018-10-11T08:49:36.621Z,19.10
2018-10-11T08:52:04.833Z,19.20
2018-10-11T08:54:38.516Z,19.30
2018-10-11T08:57:07.107Z,19.40
2018-10-11T08:59:35.507Z,19.60
2018-10-11T09:02:03.678Z,19.70
2018-10-11T09:04:31.974Z,19.70
2018-10-11T09:07:00.206Z,19.80
2018-10-11T09:09:28.457Z,19.80
2018-10-11T09:11:56.636Z,19.90
2018-10-11T09:14:24.857Z,19.90
2018-10-11T09:16:53.169Z,20.00
2018-10-11T09:19:21.673Z,20.10
2018-10-11T09:21:49.899Z,20.10
2018-10-11T09:24:18.161Z,20.20
2018-10-11T09:26:46.581Z,20.40
2018-10-11T09:29:15.073Z,20.40
2018-10-11T09:31:43.481Z,20.50
2018-10-11T09:34:11.690Z,20.50
2018-10-11T09:36:39.946Z,20.70
2018-10-11T09:39:08.998Z,20.70
2018-10-11T09:41:37.675Z,20.80
2018-10-11T09:44:06.402Z,20.90
2018-10-11T09:46:34.651Z,21.00
2018-10-11T09:49:03.405Z,21.20
2018-10-11T09:51:31.658Z,21.30
2018-10-11T09:53:59.914Z,21.40
2018-10-11T09:57:16.997Z,21.50
2018-10-11T09:59:45.260Z,21.60
2018-10-11T10:02:14.104Z,21.80
2018-10-11T10:04:43.869Z,22.00
2018-10-11T10:07:12.441Z,22.30
2018-10-11T10:09:41.613Z,22.50
2018-10-11T10:12:10.593Z,22.90
2018-10-11T10:14:39.421Z,23.20
2018-10-11T10:17:07.862Z,23.70
2018-10-11T10:19:40.705Z,24.40
2018-10-11T10:22:09.220Z,25.40
2018-10-11T10:24:38.194Z,26.50
2018-10-11T10:27:07.192Z,27.20
2018-10-11T10:29:36.247Z,28.00
2018-10-11T10:32:04.834Z,28.90
2018-10-11T10:34:33.164Z,29.90
2018-10-11T10:37:01.486Z,31.30
2018-10-11T10:39:29.731Z,33.10
2018-10-11T10:41:58.093Z,35.00
2018-10-11T10:44:26.299Z,37.00
2018-10-11T10:46:54.574Z,38.50
2018-10-11T10:49:22.869Z,40.20
2018-10-11T10:51:51.415Z,41.90
2018-10-11T10:54:31.515Z,43.50
2018-10-11T10:57:00.218Z,44.70
2018-10-11T10:59:28.707Z,45.70
2018-10-11T11:01:57.108Z,46.20
2018-10-11T11:04:25.429Z,46.40
2018-10-11T11:06:53.776Z,46.60
2018-10-11T11:09:22.058Z,47.00
2018-10-11T11:11:50.303Z,47.00
2018-10-11T11:14:18.795Z,46.90
2018-10-11T11:16:47.418Z,46.30
2018-10-11T11:19:16.353Z,45.20
2018-10-11T11:21:44.666Z,44.60
2018-10-11T11:24:12.999Z,45.10
2018-10-11T11:26:41.229Z,46.10
2018-10-11T11:29:09.581Z,46.90
2018-10-11T11:31:37.887Z,47.30
2018-10-11T11:34:06.442Z,47.50
2018-10-11T11:36:34.737Z,47.80
2018-10-11T11:39:05.507Z,48.10
2018-10-11T11:41:33.780Z,48.20
2018-10-11T11:44:02.491Z,48.50
2018-10-11T11:46:36.998Z,49.00
2018-10-11T11:49:05.783Z,49.20
2018-10-11T11:51:35.362Z,49.70
2018-10-11T11:54:03.609Z,49.80
2018-10-11T11:56:32.073Z,49.80
2018-10-11T11:59:00.934Z,49.90
2018-10-11T12:01:29.159Z,50.00
2018-10-11T12:03:57.414Z,49.60
2018-10-11T12:06:25.715Z,48.80
2018-10-11T12:08:54.434Z,48.10
2018-10-11T12:11:23.881Z,47.70
2018-10-11T12:13:52.126Z,47.50
2018-10-11T12:16:20.651Z,47.70
2018-10-11T12:18:48.935Z,47.50
2018-10-11T12:21:17.217Z,47.50
2018-10-11T12:23:45.510Z,47.70
2018-10-11T12:26:13.973Z,47.90
2018-10-11T12:28:42.400Z,48.00
2018-10-11T12:31:10.557Z,47.90
2018-10-11T12:33:39.002Z,47.90
2018-10-11T12:36:07.306Z,47.50
2018-10-11T12:38:35.876Z,47.50
2018-10-11T12:41:04.067Z,47.50
2018-10-11T12:43:32.421Z,47.50
2018-10-11T12:46:00.700Z,47.50
2018-10-11T12:48:28.962Z,47.30
2018-10-11T12:50:57.253Z,47.20
2018-10-11T12:53:25.555Z,47.30
2018-10-11T12:55:54.406Z,47.40
2018-10-11T12:58:24.652Z,47.10
2018-10-11T13:00:53.186Z,46.90
2018-10-11T13:03:21.481Z,46.40
2018-10-11T13:05:49.613Z,46.30
2018-10-11T13:08:17.867Z,46.80
2018-10-11T13:10:46.321Z,46.90
2018-10-11T13:13:14.544Z,47.10
2018-10-11T13:15:43.497Z,47.60
2018-10-11T13:18:11.702Z,47.90
2018-10-11T13:20:40.005Z,48.00
2018-10-11T13:23:14.514Z,47.70
2018-10-11T13:25:39.111Z,47.50
2018-10-11T13:28:08.233Z,47.30
2018-10-11T13:30:37.497Z,47.50
2018-10-11T13:33:05.770Z,47.60
2018-10-11T13:35:34.104Z,47.80
2018-10-11T13:38:02.378Z,48.20
2018-10-11T13:40:30.593Z,48.50
2018-10-11T13:42:59.238Z,48.60
2018-10-11T13:45:28.392Z,48.80
2018-10-11T13:47:57.815Z,48.80
2018-10-11T13:50:26.035Z,48.20
2018-10-11T13:52:54.636Z,47.60
2018-10-11T13:55:22.976Z,47.30
2018-10-11T13:57:51.254Z,47.40
2018-10-11T14:00:19.734Z,47.90
2018-10-11T14:02:47.928Z,48.00
2018-10-11T14:05:16.462Z,48.20
2018-10-11T14:07:44.999Z,48.20
2018-10-11T14:10:13.218Z,48.20
2018-10-11T14:12:41.557Z,48.00
2018-10-11T14:15:09.852Z,47.70
2018-10-11T14:17:38.332Z,47.40
2018-10-11T14:20:06.692Z,45.90
2018-10-11T14:22:35.332Z,43.60
2018-10-11T14:25:03.558Z,41.10
2018-10-11T14:27:31.899Z,38.90
2018-10-11T14:30:00.489Z,37.00
2018-10-11T14:32:28.701Z,35.50
2018-10-11T14:34:56.938Z,34.30
2018-10-11T14:37:25.212Z,33.20
2018-10-11T14:39:53.487Z,32.20
2018-10-11T14:42:21.717Z,31.50
2018-10-11T14:44:49.943Z,30.90
2018-10-11T14:47:18.173Z,30.40
2018-10-11T14:49:46.434Z,30.00
2018-10-11T14:52:14.776Z,29.60
2018-10-11T14:54:43.042Z,29.20
2018-10-11T14:57:11.490Z,29.00
2018-10-11T14:59:39.684Z,28.60
2018-10-11T15:02:07.842Z,28.30
2018-10-11T15:04:37.273Z,28.10
2018-10-11T15:07:06.213Z,27.80
2018-10-11T15:09:35.569Z,27.60
2018-10-11T15:12:03.792Z,27.50
2018-10-11T15:14:32.034Z,27.20
2018-10-11T15:17:00.400Z,27.00
2018-10-11T15:19:28.590Z,26.80
2018-10-11T15:21:56.821Z,26.60
2018-10-11T15:24:25.136Z,26.50
2018-10-11T15:26:53.477Z,26.30
2018-10-11T15:29:21.755Z,26.20
2018-10-11T15:31:49.935Z,26.00
2018-10-11T15:34:18.213Z,25.90
2018-10-11T15:36:46.710Z,25.70
2018-10-11T15:39:14.991Z,25.60
2018-10-11T15:41:43.272Z,25.50
2018-10-11T15:44:12.872Z,25.40
2018-10-11T15:46:41.744Z,25.30
2018-10-11T15:49:10.058Z,25.20
2018-10-11T15:51:38.602Z,25.20
2018-10-11T15:54:07.045Z,25.10
2018-10-11T15:56:35.301Z,25.10
2018-10-11T15:59:03.608Z,25.00
2018-10-11T16:01:31.850Z,25.00
2018-10-11T16:04:00.099Z,24.90
2018-10-11T16:06:28.622Z,24.90
2018-10-11T16:08:57.018Z,24.80
2018-10-11T16:11:25.208Z,24.70
2018-10-11T16:13:53.728Z,24.60
2018-10-11T16:16:21.922Z,24.50
2018-10-11T16:18:50.194Z,24.40
2018-10-11T16:21:18.457Z,24.20
2018-10-11T16:23:46.706Z,24.10
2018-10-11T16:26:14.970Z,24.00
2018-10-11T16:28:43.189Z,23.80
2018-10-11T16:31:11.418Z,23.70
2018-10-11T16:33:39.708Z,23.50
2018-10-11T16:36:07.925Z,23.40
2018-10-11T16:38:36.137Z,23.30
2018-10-11T16:41:04.400Z,23.20
2018-10-11T16:43:32.644Z,23.00
2018-10-11T16:46:00.886Z,22.90
2018-10-11T16:48:29.157Z,22.80
2018-10-11T16:50:57.395Z,22.70
2018-10-11T16:53:25.595Z,22.60
2018-10-11T16:55:53.837Z,22.50
2018-10-11T16:58:22.041Z,22.40
2018-10-11T17:00:50.715Z,22.30
2018-10-11T17:03:19.194Z,22.20
2018-10-11T17:05:47.423Z,22.20
2018-10-11T17:08:15.658Z,22.10
2018-10-11T17:10:43.873Z,22.00
2018-10-11T17:13:12.113Z,22.00
2018-10-11T17:15:40.329Z,22.00
2018-10-11T17:18:08.565Z,21.90
2018-10-11T17:20:36.806Z,21.80
2018-10-11T17:23:05.073Z,21.80
2018-10-11T17:25:33.351Z,21.70
2018-10-11T17:28:01.707Z,21.60
2018-10-11T17:30:29.905Z,21.60
2018-10-11T17:32:58.386Z,21.60
2018-10-11T17:35:26.585Z,21.60
2018-10-11T17:37:54.831Z,21.50
2018-10-11T17:40:23.088Z,21.50
2018-10-11T17:42:51.309Z,21.60
2018-10-11T17:45:19.564Z,21.60
2018-10-11T17:47:47.833Z,21.60
2018-10-11T17:50:16.083Z,21.60
2018-10-11T17:52:44.284Z,21.50
2018-10-11T17:55:12.501Z,21.50
2018-10-11T17:57:40.715Z,21.50
2018-10-11T18:00:10.182Z,21.50
2018-10-11T18:02:38.429Z,21.40
2018-10-11T18:05:07.131Z,21.50
2018-10-11T18:07:35.514Z,21.50
2018-10-11T18:10:04.078Z,21.50
2018-10-11T18:12:32.265Z,21.40
2018-10-11T18:15:00.493Z,21.40
2018-10-11T18:17:28.730Z,21.30
2018-10-11T18:19:56.945Z,21.30
2018-10-11T18:22:25.166Z,21.30
2018-10-11T18:24:53.397Z,21.30
2018-10-11T18:27:21.609Z,21.30
2018-10-11T18:29:50.255Z,21.30
2018-10-11T18:32:18.809Z,21.20
2018-10-11T18:34:47.040Z,21.20
2018-10-11T18:37:15.292Z,21.10
2018-10-11T18:39:43.515Z,21.10
2018-10-11T18:42:11.769Z,21.00
2018-10-11T18:44:40.092Z,20.90
2018-10-11T18:47:08.299Z,20.80
2018-10-11T18:49:36.672Z,20.70
2018-10-11T18:52:04.885Z,20.70
2018-10-11T18:54:33.103Z,20.70
2018-10-11T18:57:01.303Z,20.70
2018-10-11T18:59:29.517Z,20.70
2018-10-11T19:01:57.730Z,20.70
2018-10-11T19:04:25.997Z,20.60
2018-10-11T19:06:54.219Z,20.70
2018-10-11T19:09:22.445Z,20.70
2018-10-11T19:11:50.672Z,20.80
2018-10-11T19:14:18.924Z,20.80
2018-10-11T19:16:47.189Z,20.80
2018-10-11T19:19:15.459Z,20.70
2018-10-11T19:21:43.753Z,20.70
2018-10-11T19:24:12.033Z,20.70
2018-10-11T19:26:40.289Z,20.70
2018-10-11T19:29:08.630Z,20.70
2018-10-11T19:31:36.821Z,20.80
2018-10-11T19:34:05.061Z,20.80
2018-10-11T19:36:33.257Z,20.80
2018-10-11T19:39:01.534Z,20.90
2018-10-11T19:41:29.840Z,20.80
2018-10-11T19:43:58.090Z,20.80
2018-10-11T19:46:26.317Z,20.80
2018-10-11T19:48:54.548Z,20.90
2018-10-11T19:51:22.763Z,20.80
2018-10-11T19:53:50.968Z,20.90
2018-10-11T19:56:19.192Z,20.80
2018-10-11T19:58:47.394Z,20.80
2018-10-11T20:01:15.702Z,20.80
2018-10-11T20:03:43.925Z,20.80
2018-10-11T20:06:12.342Z,20.80
2018-10-11T20:08:40.585Z,20.80
2018-10-11T20:11:08.757Z,20.80
2018-10-11T20:13:37.106Z,20.80
2018-10-11T20:16:05.369Z,20.90
2018-10-11T20:18:33.746Z,20.90
2018-10-11T20:21:01.973Z,20.90
2018-10-11T20:23:30.473Z,20.90
2018-10-11T20:25:58.741Z,20.90
2018-10-11T20:28:27.158Z,20.80
2018-10-11T20:30:55.415Z,20.80
2018-10-11T20:33:23.668Z,20.70
2018-10-11T20:35:51.857Z,20.70
2018-10-11T20:38:20.118Z,20.70
2018-10-11T20:40:48.333Z,20.70
2018-10-11T20:43:16.516Z,20.70
2018-10-11T20:45:44.978Z,20.70
2018-10-11T20:48:13.229Z,20.60
2018-10-11T20:50:41.451Z,20.50
2018-10-11T20:53:09.677Z,20.30
2018-10-11T20:55:37.858Z,20.30
2018-10-11T20:58:06.081Z,20.30
2018-10-11T21:00:35.177Z,20.20
2018-10-11T21:03:03.401Z,20.20
2018-10-11T21:05:31.610Z,20.10
2018-10-11T21:08:00.085Z,20.00
2018-10-11T21:10:28.330Z,20.00
2018-10-11T21:12:56.541Z,19.90
2018-10-11T21:15:24.745Z,19.90
2018-10-11T21:17:52.988Z,19.80
2018-10-11T21:20:21.304Z,19.60
2018-10-11T21:22:49.464Z,19.50
2018-10-11T21:25:17.710Z,19.50
2018-10-11T21:27:45.956Z,19.40
2018-10-11T21:30:14.423Z,19.30
2018-10-11T21:32:42.627Z,19.30
2018-10-11T21:35:10.989Z,19.30
2018-10-11T21:37:39.170Z,19.30
2018-10-11T21:40:07.412Z,19.20
2018-10-11T21:42:35.682Z,19.20
2018-10-11T21:45:03.949Z,19.20
2018-10-11T21:47:32.204Z,19.20
2018-10-11T21:50:00.419Z,19.30
2018-10-11T21:52:28.812Z,19.30
2018-10-11T21:54:56.978Z,19.40
2018-10-11T21:57:25.177Z,19.40
2018-10-11T21:59:53.455Z,19.30
2018-10-11T22:02:21.783Z,19.30
2018-10-11T22:04:50.016Z,19.20
2018-10-11T22:07:18.245Z,19.20
2018-10-11T22:09:46.473Z,19.20
2018-10-11T22:12:14.675Z,19.30
2018-10-11T22:14:43.020Z,19.30
2018-10-11T22:17:11.194Z,19.30
2018-10-11T22:19:39.421Z,19.30
2018-10-11T22:22:07.669Z,19.30
2018-10-11T22:24:35.924Z,19.40
2018-10-11T22:27:04.132Z,19.40
2018-10-11T22:29:32.369Z,19.30
2018-10-11T22:32:00.836Z,19.20
2018-10-11T22:34:29.035Z,19.20
2018-10-11T22:36:57.510Z,19.20
2018-10-11T22:39:25.634Z,19.30
2018-10-11T22:41:53.901Z,19.30
2018-10-11T22:44:22.146Z,19.20
2018-10-11T22:46:50.323Z,19.30
2018-10-11T22:49:18.510Z,19.30
2018-10-11T22:51:46.746Z,19.30
2018-10-11T22:54:14.957Z,19.30
2018-10-11T22:56:43.189Z,19.30
2018-10-11T22:59:11.602Z,19.40
2018-10-11T23:01:39.794Z,19.40
2018-10-11T23:04:08.026Z,19.40
2018-10-11T23:06:36.245Z,19.40
2018-10-11T23:09:05.954Z,19.30
2018-10-11T23:11:34.197Z,19.30
2018-10-11T23:14:02.764Z,19.30
2018-10-11T23:16:30.972Z,19.30
2018-10-11T23:18:59.181Z,19.30
2018-10-11T23:21:27.695Z,19.30
2018-10-11T23:23:55.923Z,19.20
2018-10-11T23:26:24.150Z,19.10
2018-10-11T23:28:52.433Z,19.20
2018-10-11T23:31:20.641Z,19.20
2018-10-11T23:33:49.045Z,19.20
2018-10-11T23:36:17.285Z,19.20
2018-10-11T23:38:45.529Z,19.10
2018-10-11T23:41:13.798Z,19.10
2018-10-11T23:43:42.134Z,19.10
2018-10-11T23:46:10.422Z,19.00
2018-10-11T23:48:38.698Z,19.00
2018-10-11T23:51:07.094Z,19.00
2018-10-11T23:53:35.470Z,19.00
2018-10-11T23:56:03.714Z,18.90
2018-10-11T23:58:31.911Z,18.90
